createdAt,value
2022-09-01T00:02:20.025Z,9.50
2022-09-01T00:04:47.531Z,10.00
2022-09-01T00:07:14.693Z,11.00
2022-09-01T00:09:41.485Z,11.52
2022-09-01T00:12:09.364Z,10.73
2022-09-01T00:14:41.634Z,11.45
2022-09-01T00:17:10.720Z,11.40
2022-09-01T00:19:40.047Z,11.88
2022-09-01T00:22:08.226Z,11.35
2022-09-01T00:24:35.377Z,12.15
2022-09-01T00:27:02.120Z,12.48
2022-09-01T00:29:29.225Z,11.65
2022-09-01T00:31:55.983Z,11.82
2022-09-01T00:34:23.095Z,11.60
2022-09-01T00:36:50.027Z,11.25
2022-09-01T00:39:16.824Z,10.93
2022-09-01T00:41:44.981Z,11.38
2022-09-01T00:44:16.516Z,11.07
2022-09-01T00:46:50.327Z,12.60
2022-09-01T00:49:36.414Z,11.70
2022-09-01T00:52:09.490Z,12.02
2022-09-01T00:54:41.278Z,11.65
2022-09-01T00:57:09.994Z,12.02
2022-09-01T00:59:42.936Z,12.55
2022-09-01T01:02:10.927Z,11.55
2022-09-01T01:04:37.986Z,12.25
2022-09-01T01:07:06.592Z,12.48
2022-09-01T01:09:38.695Z,11.52
2022-09-01T01:12:06.781Z,12.25
2022-09-01T01:14:36.824Z,11.82
2022-09-01T01:17:04.033Z,12.20
2022-09-01T01:20:03.862Z,12.55
2022-09-01T01:23:03.784Z,11.85
2022-09-01T01:25:32.450Z,13.77
2022-09-01T01:28:22.304Z,14.15
2022-09-01T01:31:01.585Z,14.30
2022-09-01T01:33:40.633Z,12.85
2022-09-01T01:36:12.991Z,14.68
2022-09-01T01:38:43.116Z,13.48
2022-09-01T01:41:11.745Z,13.93
2022-09-01T01:43:39.540Z,12.70
2022-09-01T01:46:09.577Z,13.68
2022-09-01T01:48:41.535Z,13.63
2022-09-01T01:51:11.801Z,13.00
2022-09-01T01:53:40.845Z,13.90
2022-09-01T01:56:08.958Z,12.98
2022-09-01T01:58:36.461Z,13.50
2022-09-01T02:01:11.855Z,13.48
2022-09-01T02:03:39.446Z,13.60
2022-09-01T02:06:09.576Z,13.48
2022-09-01T02:08:38.622Z,11.95
2022-09-01T02:11:07.022Z,13.23
2022-09-01T02:13:35.119Z,13.07
2022-09-01T02:16:12.984Z,12.93
2022-09-01T02:18:47.946Z,13.35
2022-09-01T02:21:19.572Z,13.75
2022-09-01T02:23:49.611Z,14.40
2022-09-01T02:26:18.980Z,13.35
2022-09-01T02:28:55.361Z,14.15
2022-09-01T02:31:28.043Z,14.35
2022-09-01T02:33:55.970Z,14.25
2022-09-01T02:36:25.608Z,13.88
2022-09-01T02:38:56.506Z,13.93
2022-09-01T02:41:25.065Z,13.85
2022-09-01T02:43:52.065Z,14.45
2022-09-01T02:46:23.587Z,13.85
2022-09-01T02:48:52.309Z,14.18
2022-09-01T02:51:22.574Z,15.23
2022-09-01T02:53:52.151Z,14.23
2022-09-01T02:56:25.001Z,14.63
2022-09-01T02:58:52.391Z,14.40
2022-09-01T03:01:24.779Z,14.38
2022-09-01T03:03:55.348Z,14.15
2022-09-01T03:06:24.399Z,14.95
2022-09-01T03:08:59.566Z,14.43
2022-09-01T03:11:29.483Z,14.50
2022-09-01T03:13:56.682Z,14.85
2022-09-01T03:16:23.862Z,14.45
2022-09-01T03:18:52.122Z,14.15
2022-09-01T03:21:20.440Z,14.65
2022-09-01T03:23:48.730Z,14.75
2022-09-01T03:26:18.657Z,14.25
2022-09-01T03:28:46.460Z,13.75
2022-09-01T03:31:13.324Z,13.18
2022-09-01T03:33:40.854Z,13.88
2022-09-01T03:36:19.598Z,14.43
2022-09-01T03:38:49.104Z,13.45
2022-09-01T03:41:21.575Z,13.60
2022-09-01T03:43:49.341Z,13.48
2022-09-01T03:46:23.022Z,13.18
2022-09-01T03:48:58.519Z,13.45
2022-09-01T03:51:27.068Z,13.43
2022-09-01T03:53:55.042Z,12.65
2022-09-01T03:56:28.209Z,13.35
2022-09-01T03:58:57.863Z,13.07
2022-09-01T04:01:27.875Z,12.90
2022-09-01T04:03:55.265Z,12.20
2022-09-01T04:06:30.898Z,12.80
2022-09-01T04:09:02.480Z,13.05
2022-09-01T04:11:31.907Z,12.57
2022-09-01T04:13:59.558Z,13.20
2022-09-01T04:16:51.551Z,11.98
2022-09-01T04:19:25.111Z,13.40
2022-09-01T04:21:57.616Z,13.48
2022-09-01T04:24:31.026Z,12.95
2022-09-01T04:27:02.107Z,13.68
2022-09-01T04:29:29.988Z,13.13
2022-09-01T04:32:05.497Z,13.43
2022-09-01T04:34:41.623Z,13.05
2022-09-01T04:37:21.482Z,13.27
2022-09-01T04:39:57.395Z,13.93
2022-09-01T04:42:29.288Z,12.23
2022-09-01T04:44:58.334Z,13.43
2022-09-01T04:47:35.943Z,12.90
2022-09-01T04:50:14.148Z,14.00
2022-09-01T04:52:44.633Z,13.85
2022-09-01T04:55:20.920Z,14.07
2022-09-01T04:57:49.727Z,13.77
2022-09-01T05:00:22.952Z,13.57
2022-09-01T05:03:04.561Z,12.80
2022-09-01T05:05:50.977Z,12.32
2022-09-01T05:08:24.282Z,13.60
2022-09-01T05:10:55.754Z,12.85
2022-09-01T05:13:39.635Z,13.25
2022-09-01T05:16:13.236Z,13.95
2022-09-01T05:18:45.534Z,13.38
2022-09-01T05:21:16.271Z,12.68
2022-09-01T05:23:44.292Z,14.13
2022-09-01T05:26:18.158Z,13.38
2022-09-01T05:28:48.191Z,13.50
2022-09-01T05:31:28.418Z,13.85
2022-09-01T05:34:49.921Z,13.65
2022-09-01T05:37:17.201Z,14.85
2022-09-01T05:42:40.614Z,14.38
2022-09-01T05:45:23.704Z,16.00
2022-09-01T05:52:17.276Z,15.98
2022-09-01T05:59:24.697Z,13.30
2022-09-01T06:03:04.845Z,12.15
2022-09-01T06:09:47.399Z,12.73
2022-09-01T06:16:47.613Z,12.15
2022-09-01T06:26:50.955Z,13.30
2022-09-01T06:33:55.258Z,14.18
2022-09-01T06:37:16.429Z,14.80
2022-09-01T06:43:37.663Z,14.98
2022-09-01T06:50:07.909Z,15.13
2022-09-01T07:00:43.627Z,14.20
2022-09-01T07:03:30.208Z,13.88
2022-09-01T07:27:15.444Z,9.75
2022-09-01T07:30:01.974Z,8.80
2022-09-01T07:33:41.530Z,9.38
2022-09-01T07:51:42.117Z,7.65
2022-09-01T07:54:13.965Z,7.55
2022-09-01T07:56:50.761Z,7.65
2022-09-01T07:59:28.504Z,7.18
2022-09-01T08:02:26.587Z,7.30
2022-09-01T08:06:01.763Z,7.45
2022-09-01T08:14:22.772Z,6.80
2022-09-01T08:17:34.804Z,6.18
2022-09-01T08:20:28.388Z,6.00
2022-09-01T08:23:26.437Z,5.57
2022-09-01T08:26:20.298Z,5.38
2022-09-01T08:31:43.752Z,6.40
2022-09-01T08:34:43.133Z,7.18
2022-09-01T08:40:04.092Z,6.22
2022-09-01T08:43:25.035Z,5.93
2022-09-01T08:46:28.810Z,6.40
2022-09-01T08:49:47.915Z,6.30
2022-09-01T08:52:53.015Z,6.20
2022-09-01T08:55:58.516Z,5.43
2022-09-01T08:58:50.798Z,6.25
2022-09-01T09:02:16.378Z,6.32
2022-09-01T09:05:21.399Z,5.25
2022-09-01T09:08:19.218Z,6.03
2022-09-01T09:11:19.295Z,5.90
2022-09-01T09:17:46.678Z,5.57
2022-09-01T09:20:41.084Z,5.88
2022-09-01T09:23:48.643Z,5.40
2022-09-01T09:26:47.691Z,4.72
2022-09-01T09:29:27.311Z,5.20
2022-09-01T09:34:52.352Z,4.82
2022-09-01T09:37:46.961Z,4.40
2022-09-01T09:40:47.919Z,4.50
2022-09-01T09:43:42.217Z,4.60
2022-09-01T09:46:36.831Z,4.07
2022-09-01T09:49:42.342Z,4.38
2022-09-01T09:52:21.480Z,3.28
2022-09-01T09:55:22.253Z,3.50
2022-09-01T09:58:13.725Z,3.40
2022-09-01T10:00:57.820Z,3.10
2022-09-01T10:03:58.998Z,3.67
2022-09-01T10:06:41.951Z,3.17
2022-09-01T10:09:49.989Z,3.40
2022-09-01T10:12:29.705Z,2.72
2022-09-01T10:15:14.135Z,2.85
2022-09-01T10:18:32.581Z,3.08
2022-09-01T10:21:53.549Z,3.10
2022-09-01T10:24:45.862Z,3.45
2022-09-01T10:27:44.763Z,3.92
2022-09-01T10:30:37.250Z,3.67
2022-09-01T10:33:30.419Z,3.38
2022-09-01T10:36:08.785Z,2.70
2022-09-01T10:38:39.943Z,2.92
2022-09-01T10:41:14.307Z,2.78
2022-09-01T10:43:58.711Z,2.70
2022-09-01T10:46:40.655Z,2.60
2022-09-01T10:52:19.210Z,2.47
2022-09-01T10:55:00.310Z,2.50
2022-09-01T11:01:49.268Z,2.80
2022-09-01T11:04:40.142Z,2.50
2022-09-01T11:08:00.467Z,2.70
2022-09-01T11:11:31.574Z,2.60
2022-09-01T11:14:51.409Z,2.15
2022-09-01T11:17:47.747Z,2.20
2022-09-01T11:20:45.927Z,2.22
2022-09-01T11:23:30.994Z,2.35
2022-09-01T11:26:30.109Z,2.50
2022-09-01T11:29:40.673Z,2.17
2022-09-01T11:32:58.609Z,1.90
2022-09-01T11:35:33.267Z,1.83
2022-09-01T11:38:14.346Z,2.05
2022-09-01T11:40:42.092Z,1.90
2022-09-01T11:44:22.279Z,1.88
2022-09-01T11:47:03.881Z,2.17
2022-09-01T11:50:03.055Z,1.60
2022-09-01T11:52:41.754Z,1.50
2022-09-01T11:55:10.414Z,2.05
2022-09-01T11:58:25.310Z,1.73
2022-09-01T12:01:47.322Z,2.13
2022-09-01T12:05:08.078Z,1.73
2022-09-01T12:07:50.207Z,1.73
2022-09-01T12:14:20.215Z,1.50
2022-09-01T12:17:13.450Z,1.70
2022-09-01T12:23:40.209Z,2.13
2022-09-01T12:27:17.945Z,1.40
2022-09-01T12:30:58.907Z,1.95
2022-09-01T12:33:58.129Z,1.58
2022-09-01T12:36:35.905Z,1.50
2022-09-01T12:40:04.501Z,1.48
2022-09-01T12:45:46.723Z,1.85
2022-09-01T12:48:33.466Z,2.67
2022-09-01T12:51:29.227Z,1.60
2022-09-01T12:54:04.722Z,1.70
2022-09-01T12:57:06.510Z,2.00
2022-09-01T12:59:36.140Z,1.65
2022-09-01T13:03:10.813Z,1.60
2022-09-01T13:08:34.848Z,1.88
2022-09-01T13:11:15.174Z,1.75
2022-09-01T13:14:54.641Z,2.10
2022-09-01T13:17:55.233Z,1.85
2022-09-01T13:20:44.423Z,2.20
2022-09-01T13:24:28.706Z,2.10
2022-09-01T13:27:22.082Z,1.85
2022-09-01T13:29:56.253Z,1.88
2022-09-01T13:32:26.236Z,2.10
2022-09-01T13:35:24.681Z,1.98
2022-09-01T13:38:01.608Z,2.10
2022-09-01T13:43:34.269Z,2.08
2022-09-01T13:46:25.357Z,1.90
2022-09-01T13:49:05.008Z,2.15
2022-09-01T13:56:32.890Z,2.00
2022-09-01T14:07:02.153Z,1.95
2022-09-01T14:12:22.980Z,1.85
2022-09-01T14:15:15.931Z,1.63
2022-09-01T14:17:46.081Z,1.90
2022-09-01T14:20:43.023Z,1.70
2022-09-01T14:24:07.393Z,2.10
2022-09-01T14:27:03.911Z,1.80
2022-09-01T14:29:30.797Z,1.70
2022-09-01T14:36:47.153Z,1.60
2022-09-01T14:42:16.150Z,1.40
2022-09-01T14:45:15.464Z,1.33
2022-09-01T14:50:50.764Z,1.65
2022-09-01T14:53:55.369Z,1.67
2022-09-01T14:56:37.613Z,1.48
2022-09-01T15:02:42.249Z,1.70
2022-09-01T15:05:39.471Z,1.65
2022-09-01T15:08:20.250Z,1.38
2022-09-01T15:10:47.397Z,1.38
2022-09-01T15:14:21.673Z,1.75
2022-09-01T15:16:48.505Z,1.42
2022-09-01T15:20:27.689Z,1.30
2022-09-01T15:22:55.686Z,1.35
2022-09-01T15:25:32.469Z,1.27
2022-09-01T15:29:13.913Z,1.50
2022-09-01T15:32:09.407Z,1.50
2022-09-01T15:39:37.735Z,1.30
2022-09-01T15:45:21.172Z,1.40
2022-09-01T15:48:12.606Z,1.10
2022-09-01T15:50:42.490Z,1.05
2022-09-01T15:53:19.157Z,1.45
2022-09-01T16:00:22.385Z,1.30
2022-09-01T16:07:45.801Z,1.30
2022-09-01T16:13:08.865Z,1.00
2022-09-01T16:20:05.730Z,1.30
2022-09-01T16:26:52.114Z,1.50
2022-09-01T16:29:56.687Z,1.30
2022-09-01T16:32:37.057Z,0.98
2022-09-01T16:35:21.386Z,1.30
2022-09-01T16:43:16.776Z,1.52
2022-09-01T16:58:22.825Z,1.13
2022-09-01T17:13:16.430Z,1.45
2022-09-01T17:16:12.832Z,2.25
2022-09-01T17:18:50.341Z,1.45
2022-09-01T17:41:47.040Z,1.60
2022-09-01T17:49:03.264Z,1.75
2022-09-01T17:52:29.375Z,2.13
2022-09-01T18:05:50.630Z,1.58
2022-09-01T18:09:34.580Z,1.77
2022-09-01T18:12:53.047Z,1.52
2022-09-01T18:16:22.697Z,1.60
2022-09-01T18:26:27.173Z,1.40
2022-09-01T18:37:26.908Z,1.73
2022-09-01T18:45:11.539Z,1.70
2022-09-01T18:53:51.865Z,1.85
2022-09-01T18:57:10.235Z,1.48
2022-09-01T19:00:18.750Z,1.80
2022-09-01T19:03:18.939Z,1.65
2022-09-01T19:06:32.155Z,1.80
2022-09-01T19:09:19.577Z,1.73
2022-09-01T19:19:39.109Z,2.67
2022-09-01T19:25:43.880Z,2.10
2022-09-01T19:51:50.447Z,2.17
2022-09-01T19:54:30.711Z,2.42
2022-09-01T19:57:18.070Z,2.08
2022-09-01T20:07:36.876Z,1.85
2022-09-01T20:14:29.214Z,1.95
2022-09-01T20:23:28.251Z,2.20
2022-09-01T20:26:12.422Z,1.98
2022-09-01T20:30:15.531Z,2.10
2022-09-01T20:33:16.583Z,2.25
2022-09-01T20:36:35.051Z,2.20
2022-09-01T20:40:08.748Z,1.80
2022-09-01T20:43:22.979Z,2.15
2022-09-01T20:48:26.469Z,2.33
2022-09-01T20:51:15.003Z,2.40
2022-09-01T20:54:00.404Z,2.35
2022-09-01T20:56:51.887Z,2.20
2022-09-01T20:59:51.868Z,2.63
2022-09-01T21:02:34.698Z,2.25
2022-09-01T21:05:44.680Z,2.50
2022-09-01T21:08:17.909Z,2.30
2022-09-01T21:13:44.269Z,2.70
2022-09-01T21:16:26.694Z,2.40
2022-09-01T21:19:33.708Z,2.30
2022-09-01T21:22:06.298Z,2.65
2022-09-01T21:24:33.678Z,2.58
2022-09-01T21:27:07.209Z,2.72
2022-09-01T21:29:43.850Z,2.42
2022-09-01T21:32:13.761Z,2.38
2022-09-01T21:34:40.739Z,2.33
2022-09-01T21:37:07.425Z,2.33
2022-09-01T21:39:34.227Z,2.45
2022-09-01T21:42:01.163Z,2.75
2022-09-01T21:44:29.565Z,2.50
2022-09-01T21:46:57.529Z,2.75
2022-09-01T21:49:24.418Z,2.47
2022-09-01T21:51:51.126Z,2.58
2022-09-01T21:54:18.994Z,2.55
2022-09-01T21:56:46.371Z,2.25
2022-09-01T21:59:16.968Z,2.65
2022-09-01T22:01:44.854Z,2.70
2022-09-01T22:04:12.057Z,2.65
2022-09-01T22:06:40.166Z,2.40
2022-09-01T22:09:20.802Z,2.45
2022-09-01T22:11:49.286Z,2.60
2022-09-01T22:14:16.667Z,2.60
2022-09-01T22:16:43.934Z,2.92
2022-09-01T22:19:10.760Z,2.50
2022-09-01T22:21:38.421Z,2.42
2022-09-01T22:24:06.195Z,2.53
2022-09-01T22:26:33.721Z,2.30
2022-09-01T22:29:02.240Z,2.42
2022-09-01T22:31:31.052Z,2.40
2022-09-01T22:33:58.348Z,2.50
2022-09-01T22:36:31.818Z,2.58
2022-09-01T22:38:59.658Z,2.42
2022-09-01T22:41:28.339Z,2.35
2022-09-01T22:43:55.137Z,2.15
2022-09-01T22:46:22.378Z,2.35
2022-09-01T22:48:49.404Z,2.72
2022-09-01T22:51:17.488Z,2.28
2022-09-01T22:53:45.835Z,2.28
2022-09-01T22:56:20.267Z,2.38
2022-09-01T22:58:48.730Z,2.20
2022-09-01T23:01:20.285Z,2.00
2022-09-01T23:03:47.642Z,2.40
2022-09-01T23:06:27.630Z,2.20
2022-09-01T23:08:56.017Z,2.20
2022-09-01T23:11:23.067Z,2.60
2022-09-01T23:13:49.905Z,2.40
2022-09-01T23:16:16.993Z,2.28
2022-09-01T23:18:46.780Z,2.42
2022-09-01T23:21:16.159Z,2.80
2022-09-01T23:23:42.930Z,2.03
2022-09-01T23:26:11.532Z,2.20
2022-09-01T23:28:40.270Z,2.47
2022-09-01T23:31:09.897Z,2.28
2022-09-01T23:33:36.896Z,2.53
2022-09-01T23:36:09.717Z,2.17
2022-09-01T23:38:37.474Z,2.45
2022-09-01T23:41:10.423Z,2.33
2022-09-01T23:43:38.046Z,2.08
2022-09-01T23:46:05.587Z,2.20
2022-09-01T23:48:32.856Z,2.38
2022-09-01T23:51:08.438Z,2.08
2022-09-01T23:53:36.416Z,2.10
2022-09-01T23:56:08.054Z,2.17
2022-09-01T23:58:34.743Z,2.17
